Terminal Aerodrome Forecast
Issued by NWS

Home | Current Version | Previous Version | Text Only | Print | Product List | Glossary On
Versions: 1 2 3 4 5 6 7 8 9 10 11 12 13 14 15 16 17 18 19 20 21 22 23 24 25 26 27 28 29 30 31 32 33 34 35 36 37 38 39 40 41
000
FTUS45 KBOU 282340
TAFAPA
TAF
KAPA 282340Z 2900/2924 31008KT P6SM VCTS SCT080CB BKN120
      TEMPO 2901/2904 VRB14G22KT -TSRA BKN080CB
     FM290400 21010KT P6SM SCT080 BKN140
     FM291300 VRB03KT P6SM FEW140
     FM291800 03005KT P6SM SCT080=

USA.gov is the U.S. government's official web portal to all federal, state and local government web resources and services.